Time;durP1;ratioP1;P1;durP2;ratioP2;P2;SDS_P1;SDS_P2;PMS_P1;PMS_P2;Temp;Humidity;BMP_temperature;BMP_pressure;BME280_temperature;BME280_humidity;BME280_pressure;Samples;Min_cycle;Max_cycle;Signal;HPM_P1;HPM_P2
2022/07/17 00:02:26;;;;;;;1.17;0.35;;;16.20;55.00;;;;;;5012322;28;20030;-58
2022/07/17 00:04:53;;;;;;;1.90;0.40;;;16.30;54.40;;;;;;5015024;28;20028;-57
2022/07/17 00:07:20;;;;;;;0.52;0.30;;;16.40;54.00;;;;;;5007009;28;20050;-55
2022/07/17 00:09:47;;;;;;;0.52;0.25;;;16.50;54.30;;;;;;5010357;28;20034;-58
2022/07/17 00:12:15;;;;;;;1.30;0.35;;;16.50;54.60;;;;;;5008874;28;20156;-57
2022/07/17 00:14:42;;;;;;;1.33;0.50;;;16.60;53.00;;;;;;5009897;28;20556;-58
2022/07/17 00:17:09;;;;;;;2.60;0.40;;;16.70;53.80;;;;;;5010839;28;20048;-58
2022/07/17 00:19:36;;;;;;;0.43;0.25;;;16.80;53.50;;;;;;5008018;28;20034;-57
2022/07/17 00:22:04;;;;;;;1.08;0.40;;;16.90;53.60;;;;;;5010197;28;20152;-59
2022/07/17 00:24:31;;;;;;;0.20;0.20;;;17.00;53.60;;;;;;5006948;28;20037;-58
2022/07/17 00:26:58;;;;;;;1.55;0.57;;;17.10;53.60;;;;;;5008788;28;20089;-58
2022/07/17 00:29:25;;;;;;;2.42;0.35;;;17.20;51.80;;;;;;5002774;28;20045;-57
2022/07/17 00:31:53;;;;;;;0.85;0.20;;;17.40;51.70;;;;;;5019901;28;20040;-56
2022/07/17 00:34:20;;;;;;;2.10;0.40;;;17.40;52.10;;;;;;5009662;28;20026;-59
2022/07/17 00:36:47;;;;;;;1.75;0.30;;;17.50;52.90;;;;;;5018790;28;20049;-57
2022/07/17 00:39:14;;;;;;;0.63;0.40;;;17.70;50.70;;;;;;5008839;28;20025;-58
2022/07/17 00:41:43;;;;;;;1.80;0.40;;;17.70;51.90;;;;;;5009634;28;20048;-58
2022/07/17 00:44:14;;;;;;;0.73;0.32;;;17.80;52.40;;;;;;5009110;28;20026;-58
2022/07/17 00:46:42;;;;;;;2.00;0.40;;;17.90;51.50;;;;;;5009868;28;20131;-57
2022/07/17 00:49:09;;;;;;;0.88;0.57;;;18.10;51.60;;;;;;5007033;28;20153;-59
2022/07/17 00:51:37;;;;;;;1.98;0.30;;;18.10;50.60;;;;;;5008907;28;20475;-58
2022/07/17 00:54:04;;;;;;;3.72;0.82;;;18.10;50.90;;;;;;5009368;28;20032;-59
2022/07/17 00:56:33;;;;;;;0.38;0.32;;;18.10;51.60;;;;;;5009673;28;20503;-62
2022/07/17 00:59:01;;;;;;;1.95;0.50;;;18.20;51.20;;;;;;5006289;28;20037;-62
2022/07/17 01:01:31;;;;;;;0.30;0.30;;;18.30;51.40;;;;;;5009661;28;20411;-61
2022/07/17 01:03:58;;;;;;;0.80;0.28;;;18.40;51.10;;;;;;5009220;28;20030;-60
2022/07/17 01:06:26;;;;;;;3.22;0.43;;;18.50;51.50;;;;;;5010004;28;20029;-60
2022/07/17 01:08:53;;;;;;;2.40;0.50;;;18.50;51.40;;;;;;5009595;28;20028;-60
2022/07/17 01:11:21;;;;;;;1.77;0.45;;;18.70;50.90;;;;;;5007091;28;20030;-61
2022/07/17 01:13:48;;;;;;;4.30;0.63;;;18.60;51.20;;;;;;5003056;28;20049;-61
2022/07/17 01:16:16;;;;;;;0.98;0.50;;;18.80;50.90;;;;;;5005347;28;20034;-62
2022/07/17 01:18:43;;;;;;;1.67;0.40;;;18.90;50.90;;;;;;5003982;28;20113;-61
2022/07/17 01:21:11;;;;;;;0.77;0.73;;;19.10;50.90;;;;;;5000821;28;20076;-60
2022/07/17 01:23:38;;;;;;;1.05;0.40;;;19.10;51.40;;;;;;5005773;28;20053;-62
2022/07/17 01:26:05;;;;;;;2.15;0.63;;;19.20;50.50;;;;;;5002758;28;20266;-61
2022/07/17 01:28:32;;;;;;;1.10;0.40;;;19.30;49.00;;;;;;5006285;28;20109;-61
2022/07/17 01:31:03;;;;;;;2.67;0.50;;;19.40;48.80;;;;;;5002987;28;20030;-61
2022/07/17 01:33:30;;;;;;;0.30;0.30;;;19.50;49.40;;;;;;5006303;28;20084;-62
2022/07/17 01:35:58;;;;;;;0.45;0.28;;;19.70;43.10;;;;;;5004218;28;20057;-61
2022/07/17 01:38:25;;;;;;;2.95;0.35;;;19.70;42.10;;;;;;5007673;28;20060;-62
2022/07/17 01:40:53;;;;;;;1.52;0.28;;;19.80;41.60;;;;;;5005406;28;20028;-61
2022/07/17 01:43:20;;;;;;;2.67;0.60;;;19.80;42.20;;;;;;5003212;28;20022;-60
2022/07/17 01:45:47;;;;;;;0.55;0.40;;;19.90;42.10;;;;;;5003051;28;20030;-61
2022/07/17 01:48:28;;;;;;;2.88;0.30;;;20.00;42.00;;;;;;4999559;28;20081;-61
2022/07/17 01:50:55;;;;;;;2.28;0.35;;;20.10;41.50;;;;;;5006608;28;20490;-61
2022/07/17 01:53:23;;;;;;;0.82;0.40;;;20.00;40.90;;;;;;5006482;28;20080;-63
2022/07/17 01:55:50;;;;;;;5.22;0.32;;;20.10;40.70;;;;;;5004617;28;20037;-61
2022/07/17 01:58:18;;;;;;;1.80;0.50;;;20.10;40.50;;;;;;5005913;28;20049;-61
2022/07/17 02:00:45;;;;;;;0.60;0.30;;;20.20;41.30;;;;;;5001313;28;20022;-60
2022/07/17 02:03:13;;;;;;;1.67;0.50;;;20.20;39.20;;;;;;5005890;28;20045;-62
2022/07/17 02:05:40;;;;;;;2.45;0.35;;;20.30;39.50;;;;;;5005845;28;20018;-60
2022/07/17 02:08:07;;;;;;;3.60;0.25;;;20.20;39.00;;;;;;5005127;28;20204;-59
2022/07/17 02:10:35;;;;;;;2.30;0.40;;;20.20;39.30;;;;;;5004207;28;20026;-62
2022/07/17 02:13:02;;;;;;;3.15;0.32;;;20.20;39.50;;;;;;5003481;28;20161;-64
2022/07/17 02:15:30;;;;;;;8.15;0.55;;;20.20;39.30;;;;;;5002711;28;20034;-61
2022/07/17 02:17:58;;;;;;;0.57;0.25;;;20.30;39.80;;;;;;5006123;28;20483;-63
2022/07/17 02:20:26;;;;;;;1.17;0.32;;;20.30;39.20;;;;;;5019386;28;20034;-61
2022/07/17 02:22:53;;;;;;;0.22;0.20;;;20.40;40.20;;;;;;5005917;28;20471;-61
2022/07/17 02:25:20;;;;;;;1.60;0.30;;;20.40;40.50;;;;;;5004684;28;20121;-61
2022/07/17 02:27:48;;;;;;;1.45;0.38;;;20.40;39.40;;;;;;5003177;28;20041;-59
2022/07/17 02:30:20;;;;;;;0.30;0.20;;;20.40;39.00;;;;;;4993743;28;20021;-61
2022/07/17 02:32:50;;;;;;;2.67;0.38;;;20.40;39.60;;;;;;5004111;28;20383;-61
2022/07/17 02:35:17;;;;;;;1.50;0.40;;;20.40;38.80;;;;;;5001978;28;20139;-60
2022/07/17 02:37:45;;;;;;;0.93;0.40;;;20.30;39.10;;;;;;5004527;28;20038;-63
2022/07/17 02:40:13;;;;;;;1.52;0.50;;;20.40;39.70;;;;;;5004697;28;20030;-60
2022/07/17 02:42:41;;;;;;;0.50;0.25;;;20.40;39.00;;;;;;5004413;28;20033;-61
2022/07/17 02:45:09;;;;;;;5.22;0.60;;;20.40;39.30;;;;;;5004953;28;20036;-60
2022/07/17 02:47:37;;;;;;;0.65;0.22;;;20.40;39.40;;;;;;5003701;28;20053;-61
2022/07/17 02:50:07;;;;;;;0.40;0.30;;;20.40;38.20;;;;;;5005881;28;20399;-61
2022/07/17 02:52:34;;;;;;;0.30;0.30;;;20.40;37.60;;;;;;5006395;28;20065;-63
2022/07/17 02:55:01;;;;;;;1.65;0.40;;;20.40;37.20;;;;;;5006823;28;20026;-64
2022/07/17 02:57:29;;;;;;;3.25;0.40;;;20.40;36.80;;;;;;5005525;28;20098;-61
2022/07/17 02:59:56;;;;;;;2.17;0.32;;;20.40;36.80;;;;;;5004877;28;20626;-62
2022/07/17 03:02:23;;;;;;;4.07;0.40;;;20.30;36.60;;;;;;5005662;28;20113;-59
2022/07/17 03:04:51;;;;;;;3.10;0.40;;;20.30;37.10;;;;;;5005091;28;20084;-60
2022/07/17 03:07:18;;;;;;;0.90;0.43;;;20.30;36.90;;;;;;5004564;28;20395;-60
2022/07/17 03:09:45;;;;;;;3.80;0.68;;;20.20;37.20;;;;;;5004551;28;20030;-61
2022/07/17 03:12:13;;;;;;;2.85;0.45;;;20.20;37.60;;;;;;5006668;28;20064;-58
2022/07/17 03:14:41;;;;;;;1.60;0.30;;;20.30;37.80;;;;;;5007506;28;20116;-57
2022/07/17 03:17:08;;;;;;;0.60;0.28;;;20.30;36.90;;;;;;5002546;28;20041;-56
2022/07/17 03:19:36;;;;;;;1.55;0.30;;;20.30;37.30;;;;;;5007601;28;20489;-55
2022/07/17 03:22:03;;;;;;;3.60;0.55;;;20.30;35.40;;;;;;5008781;28;20029;-57
2022/07/17 03:24:30;;;;;;;1.05;0.50;;;20.40;36.00;;;;;;5009683;28;20105;-55
2022/07/17 03:26:58;;;;;;;0.50;0.30;;;20.30;35.50;;;;;;5006742;28;20095;-59
2022/07/17 03:29:25;;;;;;;0.43;0.35;;;20.30;36.80;;;;;;5009770;28;20053;-57
2022/07/17 03:31:53;;;;;;;0.47;0.40;;;20.30;37.90;;;;;;5009825;28;20026;-59
2022/07/17 03:34:20;;;;;;;0.15;0.15;;;20.30;36.10;;;;;;5010014;28;20149;-57
2022/07/17 03:36:48;;;;;;;1.17;0.30;;;20.20;36.20;;;;;;5009276;28;20552;-62
2022/07/17 03:39:15;;;;;;;0.30;0.30;;;20.20;36.70;;;;;;5009620;28;20030;-58
2022/07/17 03:41:43;;;;;;;2.08;0.30;;;20.30;36.60;;;;;;5003135;28;20041;-55
2022/07/17 03:44:10;;;;;;;0.93;0.77;;;20.30;36.30;;;;;;5008668;28;20022;-59
2022/07/17 03:46:37;;;;;;;1.88;0.65;;;20.30;37.10;;;;;;5007686;28;20099;-58
2022/07/17 03:49:05;;;;;;;0.85;0.50;;;20.30;35.90;;;;;;5010056;28;20101;-55
2022/07/17 03:51:32;;;;;;;1.67;0.85;;;20.30;36.50;;;;;;5011489;28;20026;-51
2022/07/17 03:54:00;;;;;;;1.50;0.30;;;20.20;36.50;;;;;;5010328;28;20029;-50
2022/07/17 03:56:27;;;;;;;1.00;0.30;;;20.20;36.60;;;;;;5010808;28;20029;-57
2022/07/17 03:58:54;;;;;;;7.57;0.55;;;20.20;36.70;;;;;;5010686;28;20099;-51
2022/07/17 04:01:22;;;;;;;2.45;0.43;;;20.20;36.40;;;;;;5011444;28;20057;-62
2022/07/17 04:03:49;;;;;;;0.52;0.30;;;20.20;37.00;;;;;;5011027;28;20084;-66
2022/07/17 04:06:16;;;;;;;0.90;0.30;;;20.20;35.20;;;;;;5010934;28;20515;-64
2022/07/17 04:08:43;;;;;;;4.75;1.02;;;20.20;35.30;;;;;;5011499;28;20022;-64
2022/07/17 04:11:10;;;;;;;0.70;0.40;;;20.10;35.40;;;;;;5006939;28;20407;-64
2022/07/17 04:13:38;;;;;;;1.83;0.50;;;20.10;35.20;;;;;;4991122;28;20029;-64
2022/07/17 04:16:06;;;;;;;0.60;0.43;;;20.10;34.90;;;;;;4995255;28;20034;-64
2022/07/17 04:18:36;;;;;;;1.15;0.60;;;20.10;35.20;;;;;;4998486;28;20545;-63
2022/07/17 04:21:09;;;;;;;4.03;0.77;;;20.10;36.40;;;;;;4993727;28;20044;-62
2022/07/17 04:23:37;;;;;;;1.50;0.47;;;20.10;34.60;;;;;;4997085;28;20030;-63
2022/07/17 04:26:06;;;;;;;0.63;0.30;;;20.00;34.70;;;;;;5004058;28;20505;-61
2022/07/17 04:28:34;;;;;;;1.02;0.40;;;20.00;34.80;;;;;;4995889;28;20101;-62
2022/07/17 04:31:02;;;;;;;0.65;0.30;;;20.00;35.00;;;;;;5009098;28;20018;-64
2022/07/17 04:33:30;;;;;;;0.75;0.43;;;20.00;34.00;;;;;;5007701;28;20084;-63
2022/07/17 04:35:57;;;;;;;4.85;0.50;;;19.90;35.00;;;;;;5010245;28;20018;-63
2022/07/17 04:38:24;;;;;;;2.92;0.60;;;19.90;35.60;;;;;;5007624;28;20128;-63
2022/07/17 04:40:51;;;;;;;1.02;0.60;;;19.90;35.50;;;;;;5009385;28;20025;-62
2022/07/17 04:43:18;;;;;;;0.68;0.40;;;19.80;35.50;;;;;;5009411;28;20029;-66
2022/07/17 04:45:46;;;;;;;1.10;0.30;;;19.80;34.30;;;;;;5005767;28;20061;-64
2022/07/17 04:48:13;;;;;;;0.60;0.40;;;19.80;34.20;;;;;;5008156;28;20049;-63
2022/07/17 04:50:40;;;;;;;1.38;0.32;;;19.70;34.30;;;;;;5007449;28;20030;-64
2022/07/17 04:53:08;;;;;;;1.08;0.20;;;19.70;33.50;;;;;;5006867;28;20215;-63
2022/07/17 04:55:36;;;;;;;0.90;0.30;;;19.60;34.00;;;;;;4998490;28;20033;-62
2022/07/17 04:58:03;;;;;;;0.50;0.38;;;19.50;34.10;;;;;;5006416;28;20060;-62
2022/07/17 05:00:31;;;;;;;9.73;0.40;;;19.50;34.80;;;;;;5005454;28;20033;-63
2022/07/17 05:02:58;;;;;;;1.33;0.30;;;19.50;35.10;;;;;;5005455;28;20046;-64
2022/07/17 05:05:25;;;;;;;1.35;0.30;;;19.50;33.60;;;;;;5006278;28;20033;-63
2022/07/17 05:07:53;;;;;;;4.22;0.30;;;19.40;34.20;;;;;;5005062;28;20030;-63
2022/07/17 05:10:20;;;;;;;3.70;0.45;;;19.30;35.00;;;;;;5007354;28;20136;-63
2022/07/17 05:12:47;;;;;;;0.45;0.30;;;19.30;35.40;;;;;;5002886;28;20501;-57
2022/07/17 05:15:14;;;;;;;0.20;0.20;;;19.20;33.50;;;;;;5007233;28;20037;-59
2022/07/17 05:17:42;;;;;;;1.50;0.30;;;19.20;34.00;;;;;;5004381;28;20088;-49
2022/07/17 05:20:09;;;;;;;1.58;0.50;;;19.20;33.40;;;;;;5007748;28;20025;-53
2022/07/17 05:22:36;;;;;;;1.38;0.28;;;19.10;33.70;;;;;;5007581;28;20100;-53
2022/07/17 05:25:04;;;;;;;0.70;0.45;;;19.10;34.10;;;;;;5008102;28;20026;-55
2022/07/17 05:27:31;;;;;;;0.63;0.32;;;19.00;33.50;;;;;;5007763;28;20072;-51
2022/07/17 05:29:59;;;;;;;0.32;0.20;;;19.00;34.50;;;;;;5007787;28;20026;-52
2022/07/17 05:32:26;;;;;;;0.63;0.40;;;18.90;34.40;;;;;;5006726;28;20441;-50
2022/07/17 05:34:53;;;;;;;1.85;1.13;;;18.80;33.20;;;;;;5007122;28;20044;-52
2022/07/17 05:37:20;;;;;;;1.02;0.30;;;18.80;34.50;;;;;;5007814;28;20074;-54
2022/07/17 05:39:47;;;;;;;3.33;0.35;;;18.80;34.50;;;;;;5007637;28;20022;-54
2022/07/17 05:42:15;;;;;;;1.63;0.20;;;18.70;34.40;;;;;;5006546;28;20057;-49
2022/07/17 05:44:42;;;;;;;0.50;0.20;;;18.60;35.60;;;;;;5007567;28;20474;-52
2022/07/17 05:47:09;;;;;;;0.63;0.38;;;18.50;35.80;;;;;;5007576;28;20045;-53
2022/07/17 05:49:36;;;;;;;2.22;0.20;;;18.40;35.60;;;;;;5007728;28;20567;-52
2022/07/17 05:52:04;;;;;;;1.10;0.30;;;18.30;36.30;;;;;;5007312;28;20092;-50
2022/07/17 05:54:32;;;;;;;0.25;0.25;;;18.30;35.50;;;;;;5007498;28;20085;-51
2022/07/17 05:57:00;;;;;;;4.18;0.25;;;18.30;35.30;;;;;;5007220;28;20060;-61
2022/07/17 05:59:28;;;;;;;0.95;0.20;;;18.20;35.90;;;;;;5005622;28;20124;-50
2022/07/17 06:01:55;;;;;;;2.20;0.30;;;18.10;35.50;;;;;;5007325;28;20833;-53
2022/07/17 06:04:22;;;;;;;0.20;0.20;;;18.10;36.10;;;;;;5007499;28;20029;-51
2022/07/17 06:06:49;;;;;;;0.75;0.20;;;18.10;35.90;;;;;;5007469;28;20018;-49
2022/07/17 06:09:17;;;;;;;1.50;0.40;;;18.00;36.30;;;;;;5005279;28;20061;-54
2022/07/17 06:11:44;;;;;;;0.40;0.35;;;17.90;37.10;;;;;;5007579;28;20026;-51
2022/07/17 06:14:11;;;;;;;0.45;0.20;;;17.80;36.20;;;;;;5005678;28;20057;-49
2022/07/17 06:16:38;;;;;;;1.05;0.35;;;17.80;35.90;;;;;;5004926;28;20033;-51
2022/07/17 06:19:06;;;;;;;0.93;0.30;;;17.70;37.30;;;;;;5005523;28;20026;-49
2022/07/17 06:21:33;;;;;;;0.68;0.30;;;17.70;36.70;;;;;;5004887;28;20025;-52
2022/07/17 06:24:00;;;;;;;1.35;0.38;;;17.60;36.70;;;;;;5004906;28;20041;-51
2022/07/17 06:26:27;;;;;;;2.15;0.43;;;17.50;37.40;;;;;;5006749;28;20025;-53
2022/07/17 06:28:55;;;;;;;1.33;0.30;;;17.40;37.50;;;;;;5007272;28;20032;-55
2022/07/17 06:31:23;;;;;;;1.73;0.30;;;17.30;37.70;;;;;;5005775;28;20038;-53
2022/07/17 06:33:50;;;;;;;0.47;0.20;;;17.20;37.80;;;;;;5006803;28;20026;-54
2022/07/17 06:36:20;;;;;;;4.53;0.35;;;17.10;38.10;;;;;;5005844;28;20096;-55
2022/07/17 06:38:47;;;;;;;0.82;0.25;;;17.00;38.40;;;;;;5006199;28;20022;-59
2022/07/17 06:41:14;;;;;;;0.88;0.20;;;16.90;39.00;;;;;;5006088;28;20022;-56
2022/07/17 06:43:42;;;;;;;0.57;0.32;;;16.80;39.00;;;;;;5005567;28;20042;-54
2022/07/17 06:46:09;;;;;;;3.00;0.50;;;16.80;39.00;;;;;;5004373;28;20022;-53
2022/07/17 06:48:36;;;;;;;1.35;0.30;;;16.80;39.20;;;;;;5008805;28;20511;-53
2022/07/17 06:51:03;;;;;;;0.70;0.40;;;16.70;39.30;;;;;;5009357;28;20021;-52
2022/07/17 06:53:30;;;;;;;0.32;0.20;;;16.60;39.70;;;;;;5009025;28;20040;-53
2022/07/17 06:55:58;;;;;;;0.98;0.20;;;16.50;39.70;;;;;;5008941;28;20025;-53
2022/07/17 06:58:25;;;;;;;1.50;0.40;;;16.50;39.40;;;;;;5009586;28;20037;-54
2022/07/17 07:00:52;;;;;;;1.85;0.47;;;16.50;39.40;;;;;;5010462;28;20826;-53
2022/07/17 07:03:19;;;;;;;2.30;0.47;;;16.30;39.90;;;;;;5006087;28;20502;-56
2022/07/17 07:05:47;;;;;;;0.98;0.50;;;16.20;40.30;;;;;;4997428;28;20112;-56
2022/07/17 07:08:14;;;;;;;1.23;0.50;;;16.10;40.80;;;;;;5007962;28;20049;-52
2022/07/17 07:10:42;;;;;;;1.45;0.50;;;15.90;41.60;;;;;;5009615;28;20030;-54
2022/07/17 07:13:10;;;;;;;0.98;0.57;;;15.70;41.50;;;;;;5009289;28;20505;-53
2022/07/17 07:15:37;;;;;;;1.98;0.70;;;15.60;42.30;;;;;;5009058;28;20189;-52
2022/07/17 07:18:04;;;;;;;2.53;0.70;;;15.40;42.40;;;;;;5010150;28;20048;-52
2022/07/17 07:20:32;;;;;;;0.80;0.50;;;15.40;42.90;;;;;;5009605;28;20087;-50
2022/07/17 07:22:59;;;;;;;2.63;1.85;;;15.30;43.20;;;;;;5009191;28;20026;-55
2022/07/17 07:25:26;;;;;;;2.50;0.90;;;15.20;43.70;;;;;;5008896;28;20080;-52
2022/07/17 07:27:53;;;;;;;1.63;0.70;;;15.10;44.20;;;;;;5007420;28;20022;-52
2022/07/17 07:30:21;;;;;;;2.88;0.65;;;15.10;44.00;;;;;;5009885;28;20038;-51
2022/07/17 07:32:48;;;;;;;3.45;1.35;;;14.90;44.70;;;;;;5008387;28;20026;-56
2022/07/17 07:35:15;;;;;;;3.10;1.05;;;14.90;44.30;;;;;;5010940;28;20456;-53
2022/07/17 07:37:43;;;;;;;1.48;0.88;;;14.80;44.80;;;;;;5010594;28;20034;-50
2022/07/17 07:40:11;;;;;;;1.38;0.60;;;14.70;44.60;;;;;;5009147;28;20435;-52
2022/07/17 07:42:38;;;;;;;0.90;0.60;;;14.70;45.80;;;;;;5008989;28;20042;-52
2022/07/17 07:45:06;;;;;;;5.15;1.13;;;14.70;45.50;;;;;;5008141;28;20026;-49
2022/07/17 07:47:40;;;;;;;2.58;0.68;;;14.80;45.40;;;;;;5010397;28;20541;-50
2022/07/17 07:50:08;;;;;;;6.23;1.73;;;14.70;45.40;;;;;;5006505;28;20041;-51
2022/07/17 07:52:35;;;;;;;2.17;0.70;;;14.70;45.20;;;;;;5007838;28;20463;-51
2022/07/17 07:55:03;;;;;;;3.17;0.80;;;14.60;45.40;;;;;;5031672;28;20026;-54
2022/07/17 07:57:31;;;;;;;2.85;1.25;;;14.60;45.50;;;;;;5019371;28;20487;-52
2022/07/17 07:59:58;;;;;;;2.97;0.95;;;14.60;45.80;;;;;;5011984;28;20022;-51
2022/07/17 08:02:25;;;;;;;1.77;0.90;;;14.60;46.20;;;;;;5003252;28;20133;-54
2022/07/17 08:04:52;;;;;;;3.65;0.80;;;14.60;45.90;;;;;;5008801;28;20033;-51
2022/07/17 08:07:20;;;;;;;1.33;0.50;;;14.60;46.20;;;;;;5008176;28;20062;-53
2022/07/17 08:09:48;;;;;;;1.63;0.68;;;14.60;45.80;;;;;;5009546;28;20790;-59
2022/07/17 08:12:15;;;;;;;1.88;0.70;;;14.50;46.20;;;;;;5007468;28;20037;-52
2022/07/17 08:14:43;;;;;;;2.50;0.70;;;14.50;46.40;;;;;;5007478;28;20022;-50
2022/07/17 08:17:10;;;;;;;1.52;0.50;;;14.50;45.80;;;;;;5006511;28;20073;-54
2022/07/17 08:19:37;;;;;;;0.80;0.50;;;14.60;45.70;;;;;;5007907;28;20847;-52
2022/07/17 08:22:04;;;;;;;1.48;0.60;;;14.60;45.60;;;;;;4993943;28;20041;-51
2022/07/17 08:24:32;;;;;;;0.98;0.45;;;14.60;46.20;;;;;;5003411;28;20038;-57
2022/07/17 08:26:59;;;;;;;1.42;0.60;;;14.60;45.70;;;;;;5005577;28;20387;-51
2022/07/17 08:29:26;;;;;;;1.42;0.60;;;14.50;45.80;;;;;;5005647;28;20018;-54
2022/07/17 08:31:53;;;;;;;2.70;0.60;;;14.40;46.40;;;;;;5006931;28;20037;-55
2022/07/17 08:34:21;;;;;;;0.90;0.40;;;14.40;46.30;;;;;;5008024;28;20033;-54
2022/07/17 08:36:49;;;;;;;2.15;0.95;;;14.40;46.60;;;;;;5006568;28;20069;-55
2022/07/17 08:39:16;;;;;;;2.55;0.60;;;14.40;46.70;;;;;;5008173;28;20022;-52
2022/07/17 08:41:43;;;;;;;1.95;0.73;;;14.50;46.40;;;;;;5008500;28;20066;-53
2022/07/17 08:44:11;;;;;;;0.88;0.50;;;14.40;46.70;;;;;;5007696;28;20087;-53
2022/07/17 08:46:39;;;;;;;1.48;0.82;;;14.40;47.20;;;;;;5001911;28;20041;-52
2022/07/17 08:49:08;;;;;;;1.45;0.80;;;14.40;47.00;;;;;;5010300;28;20125;-56
2022/07/17 08:51:35;;;;;;;5.38;0.93;;;14.40;46.80;;;;;;5007871;28;20022;-50
2022/07/17 08:54:03;;;;;;;0.98;0.63;;;14.50;46.70;;;;;;5013386;28;20021;-54
2022/07/17 08:56:30;;;;;;;1.27;0.80;;;14.40;47.30;;;;;;5015095;28;20421;-54
2022/07/17 08:58:58;;;;;;;0.50;0.40;;;14.40;47.20;;;;;;5001185;28;20037;-52
2022/07/17 09:01:25;;;;;;;1.17;0.60;;;14.40;47.20;;;;;;5008561;28;20050;-53
2022/07/17 09:04:05;;;;;;;1.52;0.55;;;14.50;47.30;;;;;;5004203;28;20741;-52
2022/07/17 09:06:33;;;;;;;1.30;0.50;;;14.40;47.50;;;;;;5003052;28;20051;-51
2022/07/17 09:09:12;;;;;;;3.92;1.15;;;14.40;47.40;;;;;;5003251;28;20026;-53
2022/07/17 09:11:58;;;;;;;0.75;0.50;;;14.30;47.70;;;;;;5007177;28;20076;-54
2022/07/17 09:14:40;;;;;;;1.10;0.52;;;14.40;47.20;;;;;;4991442;28;20101;-53
2022/07/17 09:17:09;;;;;;;5.63;2.05;;;14.40;47.30;;;;;;5005325;28;20033;-57
2022/07/17 09:19:42;;;;;;;2.50;0.90;;;14.30;48.70;;;;;;5009757;28;20595;-49
2022/07/17 09:22:16;;;;;;;1.33;0.65;;;14.40;47.60;;;;;;5017413;28;20053;-54
2022/07/17 09:24:55;;;;;;;0.45;0.30;;;14.30;48.10;;;;;;4999253;28;20037;-50
2022/07/17 09:27:25;;;;;;;1.02;0.38;;;14.30;48.30;;;;;;5003090;28;20025;-53
2022/07/17 09:30:00;;;;;;;3.15;0.55;;;14.20;48.70;;;;;;5016814;28;20072;-54
2022/07/17 09:32:31;;;;;;;2.22;0.73;;;14.30;48.60;;;;;;5017144;28;20026;-55
2022/07/17 09:35:00;;;;;;;0.95;0.60;;;14.20;48.40;;;;;;5006680;28;20034;-52
2022/07/17 09:37:29;;;;;;;2.65;0.80;;;14.20;48.30;;;;;;5008350;28;20034;-54
2022/07/17 09:39:57;;;;;;;1.48;0.47;;;14.20;48.60;;;;;;5015878;28;20022;-56
2022/07/17 09:42:29;;;;;;;0.77;0.40;;;14.30;48.70;;;;;;5010053;28;20030;-53
2022/07/17 09:45:08;;;;;;;1.10;0.70;;;14.30;48.60;;;;;;5008708;28;20135;-55
2022/07/17 09:47:38;;;;;;;1.15;0.47;;;14.40;49.10;;;;;;5023383;28;20080;-54
2022/07/17 09:50:08;;;;;;;1.23;0.43;;;14.40;48.80;;;;;;5007297;28;20070;-57
2022/07/17 09:52:37;;;;;;;0.77;0.60;;;14.40;49.00;;;;;;5005088;28;20037;-56
2022/07/17 09:55:06;;;;;;;1.85;0.75;;;14.40;49.30;;;;;;5010089;28;20113;-55
2022/07/17 09:57:35;;;;;;;1.88;0.73;;;14.40;49.10;;;;;;5008630;28;20049;-51
2022/07/17 10:00:12;;;;;;;1.83;0.50;;;14.40;49.00;;;;;;5005809;28;20025;-55
2022/07/17 10:02:43;;;;;;;2.28;0.60;;;14.40;49.40;;;;;;5004711;28;20034;-56
2022/07/17 10:05:16;;;;;;;4.72;0.63;;;14.40;49.30;;;;;;5001504;28;20026;-55
2022/07/17 10:07:47;;;;;;;2.47;0.98;;;14.30;50.00;;;;;;5002115;28;20037;-56
2022/07/17 10:10:17;;;;;;;3.35;0.40;;;14.40;49.90;;;;;;5005833;28;20030;-55
2022/07/17 10:12:47;;;;;;;1.70;0.60;;;14.40;50.00;;;;;;5004053;28;20439;-53
2022/07/17 10:15:15;;;;;;;3.10;0.80;;;14.60;49.90;;;;;;5010567;28;20033;-53
2022/07/17 10:17:43;;;;;;;3.15;0.50;;;14.50;50.10;;;;;;5000619;28;20070;-56
2022/07/17 10:20:11;;;;;;;1.33;0.50;;;14.50;50.30;;;;;;5002282;28;20026;-53
2022/07/17 10:22:46;;;;;;;1.45;0.82;;;14.60;50.50;;;;;;5012834;28;20506;-52
2022/07/17 10:25:16;;;;;;;2.60;0.70;;;14.50;50.70;;;;;;5009021;28;20134;-56
2022/07/17 10:28:01;;;;;;;2.90;0.40;;;14.70;50.70;;;;;;5012334;28;20021;-55
2022/07/17 10:30:31;;;;;;;1.63;0.40;;;14.80;50.60;;;;;;5005297;28;20438;-53
2022/07/17 10:33:04;;;;;;;0.68;0.40;;;14.80;51.00;;;;;;5010141;28;20026;-52
2022/07/17 10:35:51;;;;;;;1.13;0.60;;;14.70;51.00;;;;;;5011634;28;20022;-53
2022/07/17 10:38:18;;;;;;;5.07;0.93;;;14.60;51.70;;;;;;4997622;28;20033;-55
2022/07/17 10:40:45;;;;;;;1.70;0.60;;;14.70;51.20;;;;;;5004010;28;20068;-53
2022/07/17 10:43:13;;;;;;;2.03;0.50;;;14.80;51.30;;;;;;5005123;28;20053;-51
2022/07/17 10:45:42;;;;;;;2.05;0.60;;;14.70;51.60;;;;;;5007776;28;20029;-49
2022/07/17 10:48:11;;;;;;;3.03;0.60;;;14.70;51.70;;;;;;5006948;28;20442;-53
2022/07/17 10:50:41;;;;;;;2.33;0.52;;;14.70;52.00;;;;;;5008601;28;20422;-51
2022/07/17 10:53:23;;;;;;;3.53;0.57;;;14.60;52.30;;;;;;5011381;28;20429;-55
2022/07/17 10:55:53;;;;;;;1.55;0.77;;;14.60;52.20;;;;;;5002040;28;20040;-52
2022/07/17 10:58:22;;;;;;;1.08;0.60;;;14.50;52.60;;;;;;5001889;28;20041;-54
2022/07/17 11:01:09;;;;;;;2.13;1.27;;;14.40;53.20;;;;;;5011328;28;20025;-53
2022/07/17 11:03:45;;;;;;;4.00;1.08;;;14.30;53.30;;;;;;5012582;28;20040;-55
2022/07/17 11:06:20;;;;;;;2.75;1.00;;;14.30;53.70;;;;;;5006156;28;20034;-54
2022/07/17 11:09:02;;;;;;;2.20;1.05;;;14.30;54.00;;;;;;5014851;28;20026;-56
2022/07/17 11:11:42;;;;;;;2.33;1.00;;;14.30;54.00;;;;;;5007664;28;20034;-54
2022/07/17 11:14:22;;;;;;;1.88;1.02;;;14.20;54.10;;;;;;5009014;28;20394;-53
2022/07/17 11:16:52;;;;;;;3.78;0.98;;;14.20;54.30;;;;;;5011851;28;20113;-51
2022/07/17 11:19:26;;;;;;;2.35;0.93;;;14.20;54.40;;;;;;5008326;28;20479;-55
2022/07/17 11:21:55;;;;;;;2.38;0.85;;;14.20;54.20;;;;;;5006414;28;20040;-55
2022/07/17 11:24:23;;;;;;;4.07;0.70;;;14.20;54.90;;;;;;5000060;28;20026;-57
2022/07/17 11:26:52;;;;;;;3.25;1.17;;;14.10;55.00;;;;;;5015959;28;20034;-52
2022/07/17 11:29:20;;;;;;;2.40;0.60;;;14.00;56.00;;;;;;5007638;28;20430;-51
2022/07/17 11:31:47;;;;;;;1.25;0.52;;;13.90;55.80;;;;;;5009741;28;20546;-54
2022/07/17 11:34:14;;;;;;;2.03;0.80;;;13.80;56.20;;;;;;5002380;28;20032;-53
2022/07/17 11:36:43;;;;;;;1.08;0.50;;;13.70;56.60;;;;;;5020152;28;20057;-54
2022/07/17 11:39:18;;;;;;;1.23;0.75;;;13.70;56.50;;;;;;5025477;28;20091;-53
2022/07/17 11:41:53;;;;;;;1.05;0.57;;;13.70;56.40;;;;;;5004644;28;20025;-53
2022/07/17 11:44:24;;;;;;;1.15;0.80;;;13.70;56.70;;;;;;5008241;28;20033;-52
2022/07/17 11:46:52;;;;;;;4.25;0.57;;;13.70;56.90;;;;;;5008129;28;20054;-55
2022/07/17 11:49:33;;;;;;;1.85;0.40;;;13.60;57.50;;;;;;5010145;28;20022;-55
2022/07/17 11:52:11;;;;;;;1.77;0.60;;;13.50;57.40;;;;;;5008119;28;20080;-55
2022/07/17 11:54:49;;;;;;;2.88;0.65;;;13.50;57.90;;;;;;5006882;28;20073;-56
2022/07/17 11:57:18;;;;;;;2.60;0.70;;;13.40;58.00;;;;;;5006268;28;20041;-54
2022/07/17 11:59:46;;;;;;;3.63;0.80;;;13.40;58.00;;;;;;5011360;28;20711;-49
2022/07/17 12:02:17;;;;;;;1.23;0.50;;;13.40;58.40;;;;;;5024473;28;20109;-55
2022/07/17 12:04:56;;;;;;;1.58;0.80;;;13.30;58.80;;;;;;5010351;28;20073;-55
2022/07/17 12:07:39;;;;;;;3.53;1.08;;;13.20;58.80;;;;;;5020609;28;20153;-55
2022/07/17 12:10:22;;;;;;;1.00;0.50;;;13.10;60.00;;;;;;5015762;28;20026;-53
2022/07/17 12:13:01;;;;;;;1.95;0.55;;;12.90;60.70;;;;;;5011274;28;20022;-52
2022/07/17 12:15:48;;;;;;;1.25;0.50;;;12.90;61.00;;;;;;5010822;28;20030;-49
2022/07/17 12:18:27;;;;;;;1.00;0.50;;;12.90;61.30;;;;;;5014223;28;20125;-52
2022/07/17 12:20:58;;;;;;;2.35;0.50;;;12.90;61.30;;;;;;5015732;28;20475;-54
2022/07/17 12:23:36;;;;;;;1.20;0.93;;;12.90;61.40;;;;;;5010292;28;20451;-54
2022/07/17 12:26:19;;;;;;;1.77;0.50;;;12.80;62.20;;;;;;5008069;28;20026;-54
2022/07/17 12:28:47;;;;;;;5.15;0.63;;;12.80;62.30;;;;;;5018823;28;20108;-52
2022/07/17 12:31:14;;;;;;;1.73;0.57;;;12.70;62.90;;;;;;5013135;28;20080;-51
2022/07/17 12:33:43;;;;;;;4.55;0.80;;;12.80;63.00;;;;;;5009319;28;20026;-54
2022/07/17 12:36:10;;;;;;;1.85;0.45;;;12.80;63.10;;;;;;5017277;28;20120;-55
2022/07/17 12:38:38;;;;;;;4.05;0.95;;;12.80;63.20;;;;;;5016186;28;20029;-56
2022/07/17 12:41:06;;;;;;;3.30;0.70;;;12.80;63.30;;;;;;5024559;28;20084;-54
2022/07/17 12:43:33;;;;;;;1.92;0.60;;;12.70;63.20;;;;;;5013746;28;20364;-55
2022/07/17 12:46:00;;;;;;;1.63;0.55;;;12.70;63.60;;;;;;5014564;28;20038;-57
2022/07/17 12:48:28;;;;;;;1.52;0.88;;;12.60;63.60;;;;;;5020109;28;20029;-55
2022/07/17 12:50:55;;;;;;;1.90;0.65;;;12.60;64.00;;;;;;5028084;28;20021;-55
2022/07/17 12:53:22;;;;;;;1.45;0.85;;;12.70;63.80;;;;;;5011866;28;20029;-54
2022/07/17 12:55:49;;;;;;;0.85;0.60;;;12.70;63.80;;;;;;5017254;28;20095;-53
2022/07/17 12:58:17;;;;;;;4.93;0.90;;;12.70;63.60;;;;;;5009924;28;20042;-56